createdAt,value
2017-12-16T00:00:18.628Z,1017.2
2017-12-16T00:01:18.611Z,1017.22
2017-12-16T00:02:18.598Z,1017.22
2017-12-16T00:03:18.585Z,1017.19
2017-12-16T00:04:18.574Z,1017.23
2017-12-16T00:05:18.558Z,1017.19
2017-12-16T00:06:18.545Z,1017.23
2017-12-16T00:07:18.536Z,1017.17
2017-12-16T00:08:18.522Z,1017.19
2017-12-16T00:09:18.505Z,1017.26
2017-12-16T00:10:18.492Z,1017.26
2017-12-16T00:11:18.478Z,1017.31
2017-12-16T00:12:18.464Z,1017.32
2017-12-16T00:13:18.451Z,1017.34
2017-12-16T00:14:18.441Z,1017.36
2017-12-16T00:15:18.426Z,1017.39
2017-12-16T00:16:18.413Z,1017.37
2017-12-16T00:17:18.397Z,1017.38
2017-12-16T00:18:18.386Z,1017.39
2017-12-16T00:19:18.372Z,1017.4
2017-12-16T00:20:18.360Z,1017.41
2017-12-16T00:21:18.343Z,1017.41
2017-12-16T00:22:18.344Z,1017.41
2017-12-16T00:23:18.319Z,1017.33
2017-12-16T00:24:18.305Z,1017.31
2017-12-16T00:25:18.293Z,1017.27
2017-12-16T00:26:18.279Z,1017.25
2017-12-16T00:27:18.262Z,1017.24
2017-12-16T00:28:18.252Z,1017.25
2017-12-16T00:29:18.241Z,1017.31
2017-12-16T00:30:18.222Z,1017.24
2017-12-16T00:31:18.209Z,1017.24
2017-12-16T00:32:18.196Z,1017.27
2017-12-16T00:33:18.183Z,1017.24
2017-12-16T00:34:18.174Z,1017.21
2017-12-16T00:35:18.155Z,1017.24
2017-12-16T00:36:18.145Z,1017.21
2017-12-16T00:37:18.132Z,1017.23
2017-12-16T00:38:18.117Z,1017.22
2017-12-16T00:39:18.102Z,1017.23
2017-12-16T00:40:18.089Z,1017.27
2017-12-16T00:41:18.075Z,1017.24
2017-12-16T00:42:18.065Z,1017.28
2017-12-16T00:43:18.051Z,1017.27
2017-12-16T00:44:18.037Z,1017.24
2017-12-16T00:45:18.024Z,1017.26
2017-12-16T00:46:18.011Z,1017.23
2017-12-16T00:47:17.995Z,1017.23
2017-12-16T00:48:17.984Z,1017.24
2017-12-16T00:49:17.971Z,1017.26
2017-12-16T00:50:17.957Z,1017.29
2017-12-16T00:51:17.942Z,1017.35
2017-12-16T00:52:17.931Z,1017.39
2017-12-16T00:53:17.919Z,1017.4
2017-12-16T00:54:17.902Z,1017.41
2017-12-16T00:55:17.891Z,1017.42
2017-12-16T00:56:17.876Z,1017.43
2017-12-16T00:57:17.864Z,1017.34
2017-12-16T00:58:17.849Z,1017.32
2017-12-16T00:59:17.834Z,1017.3
2017-12-16T01:00:17.822Z,1017.34
2017-12-16T01:01:17.808Z,1017.41
2017-12-16T01:02:17.797Z,1017.4
2017-12-16T01:03:17.781Z,1017.4
2017-12-16T01:04:17.768Z,1017.39
2017-12-16T01:05:17.814Z,1017.38
2017-12-16T01:06:17.743Z,1017.38
2017-12-16T01:07:17.731Z,1017.34
2017-12-16T01:08:17.714Z,1017.39
2017-12-16T01:09:17.704Z,1017.38
2017-12-16T01:10:17.687Z,1017.33
2017-12-16T01:11:17.674Z,1017.3
2017-12-16T01:12:17.663Z,1017.27
2017-12-16T01:13:17.648Z,1017.31
2017-12-16T01:14:17.637Z,1017.26
2017-12-16T01:15:17.624Z,1017.29
2017-12-16T01:16:17.611Z,1017.24
2017-12-16T01:17:17.595Z,1017.27
2017-12-16T01:18:17.584Z,1017.3
2017-12-16T01:19:17.568Z,1017.29
2017-12-16T01:20:17.554Z,1017.26
2017-12-16T01:21:17.545Z,1017.24
2017-12-16T01:22:17.527Z,1017.23
2017-12-16T01:23:17.520Z,1017.26
2017-12-16T01:24:17.504Z,1017.24
2017-12-16T01:25:17.493Z,1017.27
2017-12-16T01:26:17.479Z,1017.23
2017-12-16T01:27:17.463Z,1017.18
2017-12-16T01:28:17.451Z,1017.19
2017-12-16T01:29:17.434Z,1017.17
2017-12-16T01:30:17.420Z,1017.15
2017-12-16T01:31:17.408Z,1017.18
2017-12-16T01:32:17.399Z,1017.16
2017-12-16T01:33:17.382Z,1017.17
2017-12-16T01:34:17.369Z,1017.22
2017-12-16T01:35:17.358Z,1017.2
2017-12-16T01:36:17.341Z,1017.21
2017-12-16T01:37:17.328Z,1017.17
2017-12-16T01:38:17.315Z,1017.2
2017-12-16T01:39:17.305Z,1017.22
2017-12-16T01:40:17.292Z,1017.21
2017-12-16T01:41:17.279Z,1017.25
2017-12-16T01:42:17.272Z,1017.26
2017-12-16T01:43:17.251Z,1017.26
2017-12-16T01:44:17.238Z,1017.26
2017-12-16T01:45:17.226Z,1017.26
2017-12-16T01:46:17.211Z,1017.25
2017-12-16T01:47:17.199Z,1017.26
2017-12-16T01:48:17.183Z,1017.28
2017-12-16T01:49:17.170Z,1017.24
2017-12-16T01:50:17.157Z,1017.21
2017-12-16T01:51:17.147Z,1017.21
2017-12-16T01:52:17.138Z,1017.23
2017-12-16T01:53:17.118Z,1017.22
2017-12-16T01:54:17.104Z,1017.19
2017-12-16T01:55:17.094Z,1017.21
2017-12-16T01:56:17.107Z,1017.21
2017-12-16T01:57:17.067Z,1017.21
2017-12-16T01:58:17.050Z,1017.31
2017-12-16T01:59:17.042Z,1017.32
2017-12-16T02:00:17.024Z,1017.32
2017-12-16T02:01:17.011Z,1017.35
2017-12-16T02:02:16.998Z,1017.38
2017-12-16T02:03:16.985Z,1017.38
2017-12-16T02:04:16.974Z,1017.45
2017-12-16T02:05:16.959Z,1017.45
2017-12-16T02:06:16.946Z,1017.44
2017-12-16T02:07:16.933Z,1017.42
2017-12-16T02:08:16.925Z,1017.42
2017-12-16T02:09:16.909Z,1017.38
2017-12-16T02:10:16.894Z,1017.36
2017-12-16T02:11:16.883Z,1017.37
2017-12-16T02:12:16.867Z,1017.37
2017-12-16T02:13:16.855Z,1017.39
2017-12-16T02:14:16.839Z,1017.43
2017-12-16T02:15:16.828Z,1017.46
2017-12-16T02:16:16.816Z,1017.43
2017-12-16T02:17:16.800Z,1017.42
2017-12-16T02:18:16.790Z,1017.45
2017-12-16T02:19:16.777Z,1017.42
2017-12-16T02:20:16.760Z,1017.44
2017-12-16T02:21:16.747Z,1017.4
2017-12-16T02:22:16.737Z,1017.39
2017-12-16T02:23:16.720Z,1017.42
2017-12-16T02:24:16.707Z,1017.38
2017-12-16T02:25:16.697Z,1017.42
2017-12-16T02:26:16.684Z,1017.4
2017-12-16T02:27:16.669Z,1017.4
2017-12-16T02:28:16.659Z,1017.46
2017-12-16T02:29:16.641Z,1017.47
2017-12-16T02:30:16.635Z,1017.43
2017-12-16T02:31:16.616Z,1017.45
2017-12-16T02:32:16.605Z,1017.53
2017-12-16T02:33:16.589Z,1017.52
2017-12-16T02:34:16.574Z,1017.55
2017-12-16T02:35:16.564Z,1017.55
2017-12-16T02:36:16.552Z,1017.58
2017-12-16T02:37:16.536Z,1017.58
2017-12-16T02:38:16.521Z,1017.61
2017-12-16T02:39:16.513Z,1017.65
2017-12-16T02:40:16.502Z,1017.62
2017-12-16T02:41:16.483Z,1017.62
2017-12-16T02:42:16.470Z,1017.58
2017-12-16T02:43:16.459Z,1017.68
2017-12-16T02:44:16.443Z,1017.67
2017-12-16T02:45:16.435Z,1017.66
2017-12-16T02:46:16.419Z,1017.63
2017-12-16T02:47:16.408Z,1017.64
2017-12-16T02:48:16.391Z,1017.61
2017-12-16T02:49:16.379Z,1017.55
2017-12-16T02:50:16.363Z,1017.6
2017-12-16T02:51:16.353Z,1017.56
2017-12-16T02:52:16.339Z,1017.53
2017-12-16T02:53:16.330Z,1017.58
2017-12-16T02:54:16.313Z,1017.63
2017-12-16T02:55:16.297Z,1017.59
2017-12-16T02:56:16.291Z,1017.57
2017-12-16T02:57:16.273Z,1017.63
2017-12-16T02:58:16.257Z,1017.63
2017-12-16T02:59:16.247Z,1017.6
2017-12-16T03:00:16.230Z,1017.65
2017-12-16T03:01:16.220Z,1017.61
2017-12-16T03:02:16.207Z,1017.61
2017-12-16T03:03:16.193Z,1017.6
2017-12-16T03:04:16.179Z,1017.63
2017-12-16T03:05:16.163Z,1017.69
2017-12-16T03:06:16.150Z,1017.72
2017-12-16T03:07:16.136Z,1017.74
2017-12-16T03:08:16.123Z,1017.7
2017-12-16T03:09:16.113Z,1017.75
2017-12-16T03:10:16.100Z,1017.78
2017-12-16T03:11:16.086Z,1017.78
2017-12-16T03:12:16.074Z,1017.86
2017-12-16T03:13:16.057Z,1017.88
2017-12-16T03:14:16.047Z,1017.89
2017-12-16T03:15:16.034Z,1017.98
2017-12-16T03:16:16.019Z,1017.98
2017-12-16T03:17:16.004Z,1018.03
2017-12-16T03:18:15.990Z,1018.07
2017-12-16T03:19:15.980Z,1018.04
2017-12-16T03:20:15.965Z,1018.09
2017-12-16T03:21:15.950Z,1018.08
2017-12-16T03:22:15.936Z,1018.11
2017-12-16T03:23:15.925Z,1018.17
2017-12-16T03:24:15.910Z,1018.17
2017-12-16T03:25:15.897Z,1018.18
2017-12-16T03:26:15.882Z,1018.14
2017-12-16T03:27:15.869Z,1018.14
2017-12-16T03:28:15.858Z,1018.16
2017-12-16T03:29:15.841Z,1018.12
2017-12-16T03:30:15.835Z,1018.08
2017-12-16T03:31:15.816Z,1018.15
2017-12-16T03:32:15.801Z,1018.13
2017-12-16T03:33:15.790Z,1018.15
2017-12-16T03:34:15.780Z,1018.14
2017-12-16T03:35:15.763Z,1018.15
2017-12-16T03:36:15.747Z,1018.2
2017-12-16T03:37:15.735Z,1018.22
2017-12-16T03:38:15.723Z,1018.28
2017-12-16T03:39:15.705Z,1018.28
2017-12-16T03:40:15.693Z,1018.28
2017-12-16T03:41:15.681Z,1018.29
2017-12-16T03:42:15.664Z,1018.28
2017-12-16T03:43:15.653Z,1018.31
2017-12-16T03:44:15.639Z,1018.36
2017-12-16T03:45:15.625Z,1018.37
2017-12-16T03:46:15.609Z,1018.4
2017-12-16T03:47:15.598Z,1018.42
2017-12-16T03:48:15.581Z,1018.5
2017-12-16T03:49:15.569Z,1018.53
2017-12-16T03:50:15.557Z,1018.51
2017-12-16T03:51:15.543Z,1018.57
2017-12-16T03:52:15.526Z,1018.56
2017-12-16T03:53:15.514Z,1018.57
2017-12-16T03:54:15.500Z,1018.56
2017-12-16T03:55:15.486Z,1018.59
2017-12-16T03:56:15.471Z,1018.6
2017-12-16T03:57:15.458Z,1018.59
2017-12-16T03:58:15.446Z,1018.58
2017-12-16T03:59:15.432Z,1018.54
2017-12-16T04:00:15.419Z,1018.51
2017-12-16T04:01:15.402Z,1018.5
2017-12-16T04:02:15.387Z,1018.52
2017-12-16T04:03:15.377Z,1018.49
2017-12-16T04:04:15.362Z,1018.52
2017-12-16T04:05:15.349Z,1018.48
2017-12-16T04:06:15.332Z,1018.47
2017-12-16T04:07:15.319Z,1018.45
2017-12-16T04:08:15.306Z,1018.44
2017-12-16T04:09:15.290Z,1018.48
2017-12-16T04:10:15.276Z,1018.45
2017-12-16T04:11:15.265Z,1018.52
2017-12-16T04:12:15.249Z,1018.54
2017-12-16T04:13:15.235Z,1018.52
2017-12-16T04:14:15.223Z,1018.5
2017-12-16T04:15:15.208Z,1018.47
2017-12-16T04:16:15.195Z,1018.54
2017-12-16T04:17:15.178Z,1018.55
2017-12-16T04:18:15.165Z,1018.52
2017-12-16T04:19:15.154Z,1018.56
2017-12-16T04:20:15.136Z,1018.51
2017-12-16T04:21:15.125Z,1018.55
2017-12-16T04:22:15.111Z,1018.53
2017-12-16T04:23:15.098Z,1018.57
2017-12-16T04:24:15.079Z,1018.55
2017-12-16T04:25:15.069Z,1018.57
2017-12-16T04:26:15.056Z,1018.53
2017-12-16T04:27:15.046Z,1018.52
2017-12-16T04:28:15.025Z,1018.56
2017-12-16T04:29:15.013Z,1018.6
2017-12-16T04:30:15.000Z,1018.58
2017-12-16T04:31:14.986Z,1018.62
2017-12-16T04:32:14.969Z,1018.62
2017-12-16T04:33:14.958Z,1018.59
2017-12-16T04:34:14.945Z,1018.56
2017-12-16T04:35:14.929Z,1018.53
2017-12-16T04:36:14.917Z,1018.53
2017-12-16T04:37:14.902Z,1018.5
2017-12-16T04:38:14.886Z,1018.52
2017-12-16T04:39:14.879Z,1018.53
2017-12-16T04:40:14.861Z,1018.47
2017-12-16T04:41:14.854Z,1018.42
2017-12-16T04:42:14.829Z,1018.41
2017-12-16T04:43:14.816Z,1018.44
2017-12-16T04:44:14.805Z,1018.47
2017-12-16T04:45:14.788Z,1018.49
2017-12-16T04:46:14.777Z,1018.5
2017-12-16T04:47:14.763Z,1018.56
2017-12-16T04:48:14.747Z,1018.58
2017-12-16T04:49:14.732Z,1018.6
2017-12-16T04:50:14.723Z,1018.59
2017-12-16T04:51:14.708Z,1018.58
2017-12-16T04:52:14.695Z,1018.64
2017-12-16T04:53:14.678Z,1018.64
2017-12-16T04:54:14.664Z,1018.63
2017-12-16T04:55:14.650Z,1018.66
2017-12-16T04:56:14.637Z,1018.68
2017-12-16T04:57:14.625Z,1018.62
2017-12-16T04:58:14.611Z,1018.67
2017-12-16T04:59:14.597Z,1018.7
2017-12-16T05:00:14.583Z,1018.68
2017-12-16T05:01:14.568Z,1018.77
2017-12-16T05:02:14.559Z,1018.79
2017-12-16T05:03:14.538Z,1018.8
2017-12-16T05:04:14.524Z,1018.82
2017-12-16T05:05:14.511Z,1018.91
2017-12-16T05:06:14.497Z,1018.92
2017-12-16T05:07:14.485Z,1018.92
2017-12-16T05:08:14.472Z,1018.9
2017-12-16T05:09:14.457Z,1018.92
2017-12-16T05:10:14.441Z,1018.95
2017-12-16T05:11:14.429Z,1018.97
2017-12-16T05:12:14.415Z,1018.99
2017-12-16T05:13:14.402Z,1018.94
2017-12-16T05:14:14.385Z,1018.96
2017-12-16T05:15:14.373Z,1018.95
2017-12-16T05:16:14.357Z,1018.93
2017-12-16T05:17:14.345Z,1018.86
2017-12-16T05:18:14.333Z,1018.87
2017-12-16T05:19:14.315Z,1018.8
2017-12-16T05:20:14.302Z,1018.83
2017-12-16T05:21:14.287Z,1018.81
2017-12-16T05:22:14.274Z,1018.79
2017-12-16T05:23:14.258Z,1018.81
2017-12-16T05:24:14.247Z,1018.81
2017-12-16T05:25:14.233Z,1018.77
2017-12-16T05:26:14.217Z,1018.77
2017-12-16T05:27:14.202Z,1018.78
2017-12-16T05:28:14.188Z,1018.77
2017-12-16T05:29:14.177Z,1018.8
2017-12-16T05:30:14.160Z,1018.78
2017-12-16T05:31:14.146Z,1018.79
2017-12-16T05:32:14.136Z,1018.81
2017-12-16T05:33:14.122Z,1018.81
2017-12-16T05:34:14.108Z,1018.8
2017-12-16T05:35:14.094Z,1018.84
2017-12-16T05:36:14.079Z,1018.86
2017-12-16T05:37:14.062Z,1018.85
2017-12-16T05:38:14.048Z,1018.87
2017-12-16T05:39:14.034Z,1018.82
2017-12-16T05:40:14.023Z,1018.86
2017-12-16T05:41:14.009Z,1018.91
2017-12-16T05:42:13.994Z,1018.88
2017-12-16T05:43:13.979Z,1018.81
2017-12-16T05:44:13.964Z,1018.83
2017-12-16T05:45:13.950Z,1018.8
2017-12-16T05:46:13.937Z,1018.86
2017-12-16T05:47:13.926Z,1018.82
2017-12-16T05:48:13.908Z,1018.86
2017-12-16T05:49:13.895Z,1018.84
2017-12-16T05:50:13.885Z,1018.84
2017-12-16T05:51:13.867Z,1018.86
2017-12-16T05:52:13.852Z,1018.8
2017-12-16T05:53:13.847Z,1018.79
2017-12-16T05:54:13.828Z,1018.79
2017-12-16T05:55:13.812Z,1018.76
2017-12-16T05:56:13.800Z,1018.74
2017-12-16T05:57:13.839Z,1018.69
2017-12-16T05:58:13.770Z,1018.73
2017-12-16T05:59:13.761Z,1018.73
2017-12-16T06:00:13.744Z,1018.72
2017-12-16T06:01:13.728Z,1018.72
2017-12-16T06:02:13.716Z,1018.75
2017-12-16T06:03:13.705Z,1018.77
2017-12-16T06:04:13.690Z,1018.78
2017-12-16T06:05:13.672Z,1018.77
2017-12-16T06:06:13.663Z,1018.77
2017-12-16T06:07:13.646Z,1018.75
2017-12-16T06:08:13.655Z,1018.8
2017-12-16T06:09:13.620Z,1018.76
2017-12-16T06:10:13.603Z,1018.8
2017-12-16T06:11:13.592Z,1018.83
2017-12-16T06:12:13.576Z,1018.83
2017-12-16T06:13:13.563Z,1018.88
2017-12-16T06:14:13.550Z,1018.85
2017-12-16T06:15:13.537Z,1018.86
2017-12-16T06:16:13.521Z,1018.89
2017-12-16T06:17:13.506Z,1018.85
2017-12-16T06:18:13.493Z,1018.9
2017-12-16T06:19:13.482Z,1018.85
2017-12-16T06:20:13.469Z,1018.89
2017-12-16T06:21:13.455Z,1018.92
2017-12-16T06:22:13.438Z,1018.91
2017-12-16T06:23:13.428Z,1018.91
2017-12-16T06:24:13.414Z,1018.92
2017-12-16T06:25:13.400Z,1018.91
2017-12-16T06:26:13.387Z,1018.87
2017-12-16T06:27:13.370Z,1018.92
2017-12-16T06:28:13.355Z,1018.91
2017-12-16T06:29:13.342Z,1018.93
2017-12-16T06:30:13.332Z,1018.9
2017-12-16T06:31:13.318Z,1018.89
2017-12-16T06:32:13.304Z,1018.93
2017-12-16T06:33:13.286Z,1018.93
2017-12-16T06:34:13.274Z,1018.94
2017-12-16T06:35:13.261Z,1018.95
2017-12-16T06:36:13.249Z,1018.94
2017-12-16T06:37:13.232Z,1018.93
2017-12-16T06:38:13.219Z,1018.95
2017-12-16T06:39:13.208Z,1018.96
2017-12-16T06:40:13.191Z,1019.01
2017-12-16T06:41:13.180Z,1019.01
2017-12-16T06:42:13.166Z,1019.01
2017-12-16T06:43:13.150Z,1019.01
2017-12-16T06:44:13.137Z,1018.98
2017-12-16T06:45:13.131Z,1019.04
2017-12-16T06:46:13.111Z,1019.05
2017-12-16T06:47:13.098Z,1019.1
2017-12-16T06:48:13.084Z,1019.12
2017-12-16T06:49:13.068Z,1019.06
2017-12-16T06:50:13.054Z,1019.11
2017-12-16T06:51:13.040Z,1019.12
2017-12-16T06:52:13.026Z,1019.14
2017-12-16T06:53:13.015Z,1019.16
2017-12-16T06:54:13.001Z,1019.16
2017-12-16T06:55:12.985Z,1019.17
2017-12-16T06:56:12.973Z,1019.16
2017-12-16T06:57:12.964Z,1019.15
2017-12-16T06:58:12.946Z,1019.15
2017-12-16T06:59:12.933Z,1019.2
2017-12-16T07:00:12.919Z,1019.2
2017-12-16T07:01:12.905Z,1019.2
2017-12-16T07:02:12.890Z,1019.19
2017-12-16T07:03:12.878Z,1019.19
2017-12-16T07:04:12.862Z,1019.23
2017-12-16T07:05:12.847Z,1019.24
2017-12-16T07:06:12.833Z,1019.25
2017-12-16T07:07:12.822Z,1019.25
2017-12-16T07:08:12.806Z,1019.31
2017-12-16T07:09:12.794Z,1019.4
2017-12-16T07:10:12.782Z,1019.39
2017-12-16T07:11:12.768Z,1019.44
2017-12-16T07:12:12.751Z,1019.43
2017-12-16T07:13:12.737Z,1019.43
2017-12-16T07:14:12.724Z,1019.51
2017-12-16T07:15:12.710Z,1019.51
2017-12-16T07:16:12.699Z,1019.56
2017-12-16T07:17:12.686Z,1019.52
2017-12-16T07:18:12.672Z,1019.57
2017-12-16T07:19:12.655Z,1019.54
2017-12-16T07:20:12.642Z,1019.53
2017-12-16T07:21:12.629Z,1019.5
2017-12-16T07:22:12.615Z,1019.53
2017-12-16T07:23:12.601Z,1019.48
2017-12-16T07:24:12.589Z,1019.48
2017-12-16T07:25:12.573Z,1019.46
2017-12-16T07:26:12.562Z,1019.45
2017-12-16T07:27:12.549Z,1019.43
2017-12-16T07:28:12.532Z,1019.46
2017-12-16T07:29:12.571Z,1019.46
2017-12-16T07:30:12.506Z,1019.48
2017-12-16T07:31:12.491Z,1019.49
2017-12-16T07:32:12.477Z,1019.44
2017-12-16T07:33:12.464Z,1019.45
2017-12-16T07:34:12.453Z,1019.47
2017-12-16T07:35:12.437Z,1019.49
2017-12-16T07:36:12.426Z,1019.48
2017-12-16T07:37:12.409Z,1019.49
2017-12-16T07:38:12.398Z,1019.51
2017-12-16T07:39:12.385Z,1019.46
2017-12-16T07:40:12.372Z,1019.47
2017-12-16T07:41:12.353Z,1019.45
2017-12-16T07:42:12.344Z,1019.44
2017-12-16T07:43:12.333Z,1019.43
2017-12-16T07:44:12.313Z,1019.43
2017-12-16T07:45:12.300Z,1019.38
2017-12-16T07:46:12.286Z,1019.43
2017-12-16T07:47:12.275Z,1019.37
2017-12-16T07:48:12.260Z,1019.41
2017-12-16T07:49:12.245Z,1019.4
2017-12-16T07:50:12.234Z,1019.41
2017-12-16T07:51:12.219Z,1019.38
2017-12-16T07:52:12.206Z,1019.42
2017-12-16T07:53:12.192Z,1019.47
2017-12-16T07:54:12.181Z,1019.49
2017-12-16T07:55:12.166Z,1019.47
2017-12-16T07:56:12.154Z,1019.51
2017-12-16T07:57:12.143Z,1019.48
2017-12-16T07:58:12.126Z,1019.49
2017-12-16T07:59:12.113Z,1019.48
2017-12-16T08:00:12.121Z,1019.48
2017-12-16T08:01:12.085Z,1019.49
2017-12-16T08:02:12.072Z,1019.51
2017-12-16T08:03:12.059Z,1019.49
2017-12-16T08:04:12.044Z,1019.5
2017-12-16T08:05:12.034Z,1019.5
2017-12-16T08:06:12.017Z,1019.57
2017-12-16T08:07:12.005Z,1019.56
2017-12-16T08:08:11.990Z,1019.6
2017-12-16T08:09:11.977Z,1019.61
2017-12-16T08:10:11.966Z,1019.55
2017-12-16T08:11:11.953Z,1019.57
2017-12-16T08:12:11.936Z,1019.6
2017-12-16T08:13:11.928Z,1019.53
2017-12-16T08:14:11.912Z,1019.48
2017-12-16T08:15:11.897Z,1019.44
2017-12-16T08:16:11.883Z,1019.4
2017-12-16T08:17:11.873Z,1019.33
2017-12-16T08:18:11.859Z,1019.37
2017-12-16T08:19:11.846Z,1019.39
2017-12-16T08:20:11.838Z,1019.42
2017-12-16T08:21:11.816Z,1019.44
2017-12-16T08:22:11.805Z,1019.43
2017-12-16T08:23:11.791Z,1019.48
2017-12-16T08:24:11.778Z,1019.52
2017-12-16T08:25:11.767Z,1019.58
2017-12-16T08:26:11.754Z,1019.59
2017-12-16T08:27:11.739Z,1019.6
2017-12-16T08:28:11.725Z,1019.62
2017-12-16T08:29:11.711Z,1019.66
2017-12-16T08:30:11.700Z,1019.7
2017-12-16T08:31:11.687Z,1019.74
2017-12-16T08:32:11.675Z,1019.75
2017-12-16T08:33:11.663Z,1019.74
2017-12-16T08:34:11.647Z,1019.7
2017-12-16T08:35:11.633Z,1019.7
2017-12-16T08:36:11.619Z,1019.72
2017-12-16T08:37:11.607Z,1019.77
2017-12-16T08:38:11.619Z,1019.75
2017-12-16T08:39:11.584Z,1019.82
2017-12-16T08:40:11.570Z,1019.78
2017-12-16T08:41:11.556Z,1019.76
2017-12-16T08:42:11.547Z,1019.77
2017-12-16T08:43:11.530Z,1019.75
2017-12-16T08:44:11.517Z,1019.78
2017-12-16T08:45:11.502Z,1019.74
2017-12-16T08:46:11.489Z,1019.77
2017-12-16T08:47:11.479Z,1019.71
2017-12-16T08:48:11.466Z,1019.76
2017-12-16T08:49:11.453Z,1019.85
2017-12-16T08:50:11.439Z,1019.84
2017-12-16T08:51:11.427Z,1019.81
2017-12-16T08:52:11.414Z,1019.85
2017-12-16T08:53:11.403Z,1019.82
2017-12-16T08:54:11.386Z,1019.82
2017-12-16T08:55:11.372Z,1019.8
2017-12-16T08:56:11.361Z,1019.75
2017-12-16T08:57:11.349Z,1019.65
2017-12-16T08:58:11.336Z,1019.59
2017-12-16T08:59:11.325Z,1019.59
2017-12-16T09:00:11.308Z,1019.58
2017-12-16T09:01:11.299Z,1019.52
2017-12-16T09:02:11.293Z,1019.52
2017-12-16T09:03:11.272Z,1019.51
2017-12-16T09:04:11.257Z,1019.53
2017-12-16T09:05:11.248Z,1019.54
2017-12-16T09:06:11.232Z,1019.51
2017-12-16T09:07:11.223Z,1019.51
2017-12-16T09:08:11.210Z,1019.51
2017-12-16T09:09:11.193Z,1019.48
2017-12-16T09:10:11.184Z,1019.54
2017-12-16T09:11:11.169Z,1019.54
2017-12-16T09:12:11.158Z,1019.58
2017-12-16T09:13:11.146Z,1019.6
2017-12-16T09:14:11.132Z,1019.64
2017-12-16T09:15:11.120Z,1019.68
2017-12-16T09:16:11.114Z,1019.74
2017-12-16T09:17:11.095Z,1019.76
2017-12-16T09:18:11.086Z,1019.85
2017-12-16T09:19:11.075Z,1019.83
2017-12-16T09:20:11.063Z,1019.84
2017-12-16T09:21:11.048Z,1019.8
2017-12-16T09:22:11.037Z,1019.73
2017-12-16T09:23:11.023Z,1019.7
2017-12-16T09:24:11.015Z,1019.67
2017-12-16T09:25:10.999Z,1019.62
2017-12-16T09:26:10.988Z,1019.59
2017-12-16T09:27:10.973Z,1019.58
2017-12-16T09:28:10.963Z,1019.53
2017-12-16T09:29:10.951Z,1019.53
2017-12-16T09:30:10.936Z,1019.56
2017-12-16T09:31:10.923Z,1019.59
2017-12-16T09:32:10.913Z,1019.58
2017-12-16T09:33:10.902Z,1019.58
2017-12-16T09:34:10.890Z,1019.62
2017-12-16T09:35:10.877Z,1019.63
2017-12-16T09:36:10.864Z,1019.64
2017-12-16T09:37:10.855Z,1019.65
2017-12-16T09:38:10.840Z,1019.62
2017-12-16T09:39:10.833Z,1019.67
2017-12-16T09:40:10.817Z,1019.74
2017-12-16T09:41:10.804Z,1019.75
2017-12-16T09:42:10.792Z,1019.8
2017-12-16T09:43:10.781Z,1019.87
2017-12-16T09:44:10.770Z,1019.89
2017-12-16T09:45:10.777Z,1020
2017-12-16T09:46:10.743Z,1020.06
2017-12-16T09:47:10.729Z,1020.06
2017-12-16T09:48:10.720Z,1020.14
2017-12-16T09:49:10.704Z,1020.23
2017-12-16T09:50:10.694Z,1020.3
2017-12-16T09:51:10.680Z,1020.31
2017-12-16T09:52:10.668Z,1020.25
2017-12-16T09:53:10.658Z,1020.22
2017-12-16T09:54:10.643Z,1020.15
2017-12-16T09:55:10.630Z,1020.07
2017-12-16T09:56:10.618Z,1020.01
2017-12-16T09:57:10.604Z,1019.92
2017-12-16T09:58:10.596Z,1019.88
2017-12-16T09:59:10.582Z,1019.8
2017-12-16T10:00:10.573Z,1019.75
2017-12-16T10:01:10.617Z,1019.69
2017-12-16T10:02:10.545Z,1019.67
2017-12-16T10:03:10.532Z,1019.54
2017-12-16T10:04:10.517Z,1019.42
2017-12-16T10:05:10.507Z,1019.27
2017-12-16T10:06:10.497Z,1019.17
2017-12-16T10:07:10.480Z,1019.08
2017-12-16T10:08:10.472Z,1018.94
2017-12-16T10:09:10.456Z,1018.76
2017-12-16T10:10:10.447Z,1018.73
2017-12-16T10:11:10.431Z,1018.75
2017-12-16T10:12:10.422Z,1018.68
2017-12-16T10:13:10.408Z,1018.66
2017-12-16T10:14:10.400Z,1018.66
2017-12-16T10:15:10.386Z,1018.67
2017-12-16T10:16:10.372Z,1018.68
2017-12-16T10:17:10.361Z,1018.62
2017-12-16T10:18:10.351Z,1018.57
2017-12-16T10:19:10.337Z,1018.52
2017-12-16T10:20:10.325Z,1018.5
2017-12-16T10:21:10.316Z,1018.44
2017-12-16T10:22:10.304Z,1018.38
2017-12-16T10:23:10.290Z,1018.21
2017-12-16T10:24:10.279Z,1018.16
2017-12-16T10:25:10.268Z,1018.1
2017-12-16T10:26:10.256Z,1018.18
2017-12-16T10:27:10.245Z,1018.07
2017-12-16T10:28:10.237Z,1018.07
2017-12-16T10:29:10.222Z,1018
2017-12-16T10:30:10.210Z,1017.89
2017-12-16T10:31:10.202Z,1017.81
2017-12-16T10:32:10.190Z,1017.81
2017-12-16T10:33:10.179Z,1017.81
2017-12-16T10:34:10.167Z,1017.86
2017-12-16T10:35:10.155Z,1017.92
2017-12-16T10:36:10.146Z,1017.96
2017-12-16T10:37:10.134Z,1017.96
2017-12-16T10:38:10.125Z,1018.02
2017-12-16T10:39:10.113Z,1018.06
2017-12-16T10:40:10.101Z,1018.08
2017-12-16T10:41:10.094Z,1018.02
2017-12-16T10:42:10.083Z,1018.08
2017-12-16T10:43:10.071Z,1017.98
2017-12-16T10:44:10.062Z,1018.03
2017-12-16T10:45:10.052Z,1018.07
2017-12-16T10:46:10.043Z,1018.13
2017-12-16T10:47:10.030Z,1018.14
2017-12-16T10:48:10.019Z,1018.2
2017-12-16T10:49:10.009Z,1018.26
2017-12-16T10:50:09.999Z,1018.25
2017-12-16T10:51:09.984Z,1018.27
2017-12-16T10:52:09.974Z,1018.31
2017-12-16T10:53:09.964Z,1018.29
2017-12-16T10:54:09.956Z,1018.3
2017-12-16T10:55:09.945Z,1018.4
2017-12-16T10:56:09.933Z,1018.41
2017-12-16T10:57:09.934Z,1018.43
2017-12-16T10:58:09.914Z,1018.41
2017-12-16T10:59:09.901Z,1018.36
2017-12-16T11:00:09.892Z,1018.41
2017-12-16T11:01:09.882Z,1018.48
2017-12-16T11:02:09.868Z,1018.54
2017-12-16T11:03:09.856Z,1018.62
2017-12-16T11:04:09.846Z,1018.79
2017-12-16T11:05:09.839Z,1018.88
2017-12-16T11:06:09.826Z,1018.97
2017-12-16T11:07:09.812Z,1019.01
2017-12-16T11:08:09.803Z,1019.09
2017-12-16T11:09:09.796Z,1019.21
2017-12-16T11:10:09.784Z,1019.27
2017-12-16T11:11:09.771Z,1019.38
2017-12-16T11:12:09.763Z,1019.44
2017-12-16T11:13:09.748Z,1019.56
2017-12-16T11:14:09.736Z,1019.63
2017-12-16T11:15:09.726Z,1019.65
2017-12-16T11:16:09.717Z,1019.66
2017-12-16T11:17:09.703Z,1019.73
2017-12-16T11:18:09.694Z,1019.73
2017-12-16T11:19:09.685Z,1019.74
2017-12-16T11:20:09.672Z,1019.8
2017-12-16T11:21:09.657Z,1019.77
2017-12-16T11:22:09.646Z,1019.79
2017-12-16T11:23:09.634Z,1019.79
2017-12-16T11:24:09.622Z,1019.82
2017-12-16T11:25:09.613Z,1019.84
2017-12-16T11:26:09.603Z,1019.88
2017-12-16T11:27:09.588Z,1019.82
2017-12-16T11:28:09.580Z,1019.84
2017-12-16T11:29:09.565Z,1019.91
2017-12-16T11:30:09.553Z,1019.88
2017-12-16T11:31:09.540Z,1019.9
2017-12-16T11:32:09.528Z,1019.97
2017-12-16T11:33:09.519Z,1020.05
2017-12-16T11:34:09.508Z,1020.09
2017-12-16T11:35:09.495Z,1020.07
2017-12-16T11:36:09.485Z,1020.19
2017-12-16T11:37:09.534Z,1020.16
2017-12-16T11:38:09.458Z,1020.23
2017-12-16T11:39:09.448Z,1020.23
2017-12-16T11:40:09.438Z,1020.23
2017-12-16T11:41:09.424Z,1020.32
2017-12-16T11:42:09.414Z,1020.33
2017-12-16T11:43:09.397Z,1020.4
2017-12-16T11:44:09.389Z,1020.47
2017-12-16T11:45:09.390Z,1020.53
2017-12-16T11:46:09.368Z,1020.57
2017-12-16T11:47:09.357Z,1020.59
2017-12-16T11:48:09.344Z,1020.63
2017-12-16T11:49:09.329Z,1020.68
2017-12-16T11:50:09.321Z,1020.76
2017-12-16T11:51:09.302Z,1020.74
2017-12-16T11:52:09.292Z,1020.73
2017-12-16T11:53:09.288Z,1020.74
2017-12-16T11:54:09.264Z,1020.71
2017-12-16T11:55:09.251Z,1020.73
2017-12-16T11:56:09.242Z,1020.68
2017-12-16T11:57:09.230Z,1020.69
2017-12-16T11:58:09.215Z,1020.66
2017-12-16T11:59:09.204Z,1020.7
2017-12-16T12:00:09.193Z,1020.67
2017-12-16T12:01:09.179Z,1020.66
2017-12-16T12:02:09.168Z,1020.61
2017-12-16T12:03:09.155Z,1020.61
2017-12-16T12:04:09.184Z,1020.61
2017-12-16T12:05:09.130Z,1020.59
2017-12-16T12:06:09.118Z,1020.61
2017-12-16T12:07:09.119Z,1020.61
2017-12-16T12:08:09.094Z,1020.64